Time;durP1;ratioP1;P1;durP2;ratioP2;P2;SDS_P1;SDS_P2;PMS_P1;PMS_P2;Temp;Humidity;BMP_temperature;BMP_pressure;BME280_temperature;BME280_humidity;BME280_pressure;Samples;Min_cycle;Max_cycle;Signal;HPM_P1;HPM_P2
2022/04/06 00:01:25;;;;;;;23.52;7.68;;;;;;;;;;4994872;28;99166;-78
2022/04/06 00:03:52;;;;;;;27.83;8.48;;;;;;;;;;4995009;28;101322;-78
2022/04/06 00:06:18;;;;;;;34.45;8.95;;;;;;;;;;4994777;28;99488;-78
2022/04/06 00:09:03;;;;;;;34.28;9.48;;;;;;;;;;4998705;28;98295;-77
2022/04/06 00:11:30;;;;;;;28.52;9.00;;;;;;;;;;4995021;28;100162;-77
2022/04/06 00:13:57;;;;;;;28.17;8.77;;;;;;;;;;4993911;28;98328;-78
2022/04/06 00:16:24;;;;;;;28.38;9.55;;;;;;;;;;4995307;28;99658;-78
2022/04/06 00:18:51;;;;;;;34.05;9.43;;;;;;;;;;4995067;28;99410;-80
2022/04/06 00:21:19;;;;;;;29.17;9.75;;;;;;;;;;4993743;28;98313;-79
2022/04/06 00:23:45;;;;;;;24.73;9.18;;;;;;;;;;4993649;28;100973;-79
2022/04/06 00:26:11;;;;;;;25.15;9.13;;;;;;;;;;4994184;28;100646;-78
2022/04/06 00:28:38;;;;;;;32.95;10.07;;;;;;;;;;4994894;28;98422;-78
2022/04/06 00:31:04;;;;;;;28.33;10.25;;;;;;;;;;4996987;28;99197;-80
2022/04/06 00:33:31;;;;;;;28.58;9.88;;;;;;;;;;4994200;28;98314;-78
2022/04/06 00:35:57;;;;;;;30.40;9.80;;;;;;;;;;4994798;28;99507;-78
2022/04/06 00:38:23;;;;;;;22.67;9.55;;;;;;;;;;4994432;28;99583;-79
2022/04/06 00:40:50;;;;;;;23.00;9.75;;;;;;;;;;4994611;28;98362;-80
2022/04/06 00:43:16;;;;;;;28.08;9.93;;;;;;;;;;4995421;28;98946;-80
2022/04/06 00:45:43;;;;;;;31.02;10.27;;;;;;;;;;4995400;28;99756;-79
2022/04/06 00:48:10;;;;;;;22.98;8.48;;;;;;;;;;4994220;28;98481;-78
2022/04/06 00:50:37;;;;;;;23.73;10.38;;;;;;;;;;4994260;28;99522;-78
2022/04/06 00:53:04;;;;;;;30.02;10.52;;;;;;;;;;4996769;28;99692;-78
2022/04/06 00:55:33;;;;;;;31.92;10.82;;;;;;;;;;4992725;28;103072;-78
2022/04/06 00:58:01;;;;;;;31.98;11.15;;;;;;;;;;5009071;28;99725;-78
2022/04/06 01:00:28;;;;;;;31.02;10.73;;;;;;;;;;4991992;28;98328;-75
2022/04/06 01:02:54;;;;;;;26.65;9.32;;;;;;;;;;4993557;28;99832;-76
2022/04/06 01:05:21;;;;;;;32.30;9.52;;;;;;;;;;4993738;28;98980;-76
2022/04/06 01:07:48;;;;;;;29.20;10.23;;;;;;;;;;4994761;28;97675;-76
2022/04/06 01:10:15;;;;;;;30.33;9.63;;;;;;;;;;4992405;28;99772;-76
2022/04/06 01:12:44;;;;;;;29.80;10.07;;;;;;;;;;4993362;28;100805;-77
2022/04/06 01:15:10;;;;;;;29.27;9.15;;;;;;;;;;4996616;28;99071;-76
2022/04/06 01:17:39;;;;;;;28.90;9.95;;;;;;;;;;4992771;28;99908;-79
2022/04/06 01:20:07;;;;;;;34.10;10.25;;;;;;;;;;4994339;28;98272;-78
2022/04/06 01:22:34;;;;;;;26.13;9.70;;;;;;;;;;4993123;28;99421;-79
2022/04/06 01:25:01;;;;;;;33.67;10.57;;;;;;;;;;4993667;28;99165;-77
2022/04/06 01:27:27;;;;;;;41.00;10.45;;;;;;;;;;4993397;28;98339;-78
2022/04/06 01:29:54;;;;;;;37.20;10.15;;;;;;;;;;5009197;28;99756;-78
2022/04/06 01:32:22;;;;;;;27.48;9.80;;;;;;;;;;4993314;28;99260;-78
2022/04/06 01:34:49;;;;;;;23.88;9.70;;;;;;;;;;4994119;28;98191;-80
2022/04/06 01:37:16;;;;;;;32.75;10.25;;;;;;;;;;4996828;28;99543;-77
2022/04/06 01:39:43;;;;;;;27.55;10.70;;;;;;;;;;4992918;28;98940;-77
2022/04/06 01:42:11;;;;;;;34.00;9.48;;;;;;;;;;4992846;28;100552;-78
2022/04/06 01:44:37;;;;;;;26.60;9.65;;;;;;;;;;4993425;28;99592;-78
2022/04/06 01:47:05;;;;;;;28.00;9.38;;;;;;;;;;4993735;28;98313;-78
2022/04/06 01:52:17;;;;;;;23.85;9.02;;;;;;;;;;4993266;28;99541;-78
2022/04/06 01:55:02;;;;;;;29.80;9.63;;;;;;;;;;4993794;28;98431;-78
2022/04/06 01:57:29;;;;;;;27.75;8.88;;;;;;;;;;4997029;28;100069;-78
2022/04/06 01:59:56;;;;;;;23.83;8.98;;;;;;;;;;4993647;28;98263;-78
2022/04/06 02:02:23;;;;;;;19.63;7.90;;;;;;;;;;4993397;28;98971;-78
2022/04/06 02:04:50;;;;;;;18.10;8.00;;;;;;;;;;4992325;28;101297;-78
2022/04/06 02:07:17;;;;;;;27.55;8.32;;;;;;;;;;4993392;28;98567;-79
2022/04/06 02:09:44;;;;;;;26.77;8.18;;;;;;;;;;4992268;28;102363;-79
2022/04/06 02:12:11;;;;;;;25.00;8.68;;;;;;;;;;4993001;28;99723;-78
2022/04/06 02:14:38;;;;;;;25.85;8.98;;;;;;;;;;4992938;28;98414;-80
2022/04/06 02:17:04;;;;;;;21.90;7.82;;;;;;;;;;4992747;28;99626;-77
2022/04/06 02:19:31;;;;;;;25.15;8.27;;;;;;;;;;4995039;28;99745;-79
2022/04/06 02:21:57;;;;;;;26.98;8.05;;;;;;;;;;4993612;28;100026;-77
2022/04/06 02:24:24;;;;;;;20.30;7.68;;;;;;;;;;4992790;28;100486;-77
2022/04/06 02:26:50;;;;;;;25.77;8.02;;;;;;;;;;4993354;28;98350;-78
2022/04/06 02:29:16;;;;;;;18.75;6.47;;;;;;;;;;4991795;28;99563;-79
2022/04/06 02:31:43;;;;;;;26.20;7.43;;;;;;;;;;4992852;28;100005;-78
2022/04/06 02:34:09;;;;;;;21.95;7.22;;;;;;;;;;4993141;28;98335;-81
2022/04/06 02:36:36;;;;;;;20.00;7.50;;;;;;;;;;4992893;28;99513;-77
2022/04/06 02:39:02;;;;;;;22.92;6.57;;;;;;;;;;4991888;28;99261;-78
2022/04/06 02:41:28;;;;;;;14.82;6.75;;;;;;;;;;4995149;28;98409;-77
2022/04/06 02:43:55;;;;;;;24.63;7.82;;;;;;;;;;4992420;28;99721;-78
2022/04/06 02:46:21;;;;;;;16.58;6.85;;;;;;;;;;4992708;28;97672;-78
2022/04/06 02:48:48;;;;;;;18.20;6.78;;;;;;;;;;4992751;28;98460;-77
2022/04/06 02:51:14;;;;;;;16.65;5.72;;;;;;;;;;4992719;28;100130;-78
2022/04/06 02:53:43;;;;;;;14.95;5.57;;;;;;;;;;4992684;28;99186;-77
2022/04/06 02:56:09;;;;;;;15.20;5.88;;;;;;;;;;4992944;28;100189;-77
2022/04/06 02:58:36;;;;;;;14.82;4.82;;;;;;;;;;4993361;28;99810;-80
2022/04/06 03:01:02;;;;;;;21.27;5.68;;;;;;;;;;4994144;28;98294;-78
2022/04/06 03:03:29;;;;;;;14.15;4.55;;;;;;;;;;4995815;28;99429;-77
2022/04/06 03:05:55;;;;;;;11.20;4.38;;;;;;;;;;4989282;28;98387;-77
2022/04/06 03:08:21;;;;;;;14.60;4.95;;;;;;;;;;4993156;28;98963;-76
2022/04/06 03:10:48;;;;;;;12.07;4.00;;;;;;;;;;4992679;28;98823;-77
2022/04/06 03:13:14;;;;;;;15.25;5.28;;;;;;;;;;4992455;28;98313;-77
2022/04/06 03:15:42;;;;;;;33.03;5.38;;;;;;;;;;4992826;28;99415;-77
2022/04/06 03:18:08;;;;;;;16.77;3.90;;;;;;;;;;4992110;28;101237;-77
2022/04/06 03:20:34;;;;;;;10.00;3.50;;;;;;;;;;4993379;28;98363;-79
2022/04/06 03:23:03;;;;;;;11.30;3.45;;;;;;;;;;4992571;28;98947;-77
2022/04/06 03:25:29;;;;;;;15.63;3.38;;;;;;;;;;4994648;28;99013;-78
2022/04/06 03:27:55;;;;;;;11.55;3.83;;;;;;;;;;4995259;28;98212;-77
2022/04/06 03:30:22;;;;;;;13.80;3.03;;;;;;;;;;4995665;28;100130;-79
2022/04/06 03:32:48;;;;;;;9.70;3.45;;;;;;;;;;4995663;28;98454;-80
2022/04/06 03:35:14;;;;;;;11.05;2.88;;;;;;;;;;4996454;28;99200;-77
2022/04/06 03:37:41;;;;;;;6.75;2.63;;;;;;;;;;4995443;28;99846;-80
2022/04/06 03:40:08;;;;;;;16.08;3.72;;;;;;;;;;4978402;28;98449;-78
2022/04/06 03:42:34;;;;;;;12.15;2.60;;;;;;;;;;4995549;28;99566;-78
2022/04/06 03:45:01;;;;;;;6.57;2.90;;;;;;;;;;4995376;28;99835;-79
2022/04/06 03:47:31;;;;;;;12.40;2.67;;;;;;;;;;4998395;28;98350;-77
2022/04/06 03:49:58;;;;;;;10.10;2.28;;;;;;;;;;4995173;28;99448;-79
2022/04/06 03:52:25;;;;;;;6.57;2.60;;;;;;;;;;4995986;28;98438;-78
2022/04/06 03:54:52;;;;;;;7.47;2.67;;;;;;;;;;4994631;28;100534;-76
2022/04/06 03:57:18;;;;;;;8.65;2.90;;;;;;;;;;4995428;28;99683;-78
2022/04/06 03:59:46;;;;;;;5.75;2.08;;;;;;;;;;4995898;28;97805;-78
2022/04/06 04:02:12;;;;;;;9.57;2.60;;;;;;;;;;4995535;28;98378;-78
2022/04/06 04:04:39;;;;;;;10.50;2.50;;;;;;;;;;4995232;28;99731;-79
2022/04/06 04:07:07;;;;;;;9.70;2.38;;;;;;;;;;4998358;28;99230;-78
2022/04/06 04:09:33;;;;;;;11.93;2.60;;;;;;;;;;4994956;28;99787;-78
2022/04/06 04:12:00;;;;;;;15.52;2.45;;;;;;;;;;4995275;28;98378;-77
2022/04/06 04:14:26;;;;;;;8.32;2.38;;;;;;;;;;4994878;28;99500;-77
2022/04/06 04:16:53;;;;;;;7.70;2.30;;;;;;;;;;4993606;28;100703;-76
2022/04/06 04:19:20;;;;;;;8.82;2.13;;;;;;;;;;4994293;28;98379;-77
2022/04/06 04:21:46;;;;;;;8.60;2.05;;;;;;;;;;4994892;28;98852;-77
2022/04/06 04:24:16;;;;;;;9.55;2.15;;;;;;;;;;4995188;28;99409;-78
2022/04/06 04:26:43;;;;;;;10.88;2.38;;;;;;;;;;4995083;28;98493;-78
2022/04/06 04:29:09;;;;;;;13.40;2.00;;;;;;;;;;4997595;28;99493;-78
2022/04/06 04:31:36;;;;;;;10.75;2.63;;;;;;;;;;4994095;28;99021;-79
2022/04/06 04:34:02;;;;;;;5.10;2.13;;;;;;;;;;4994970;28;100140;-78
2022/04/06 04:36:29;;;;;;;9.93;3.30;;;;;;;;;;4994610;28;100429;-79
2022/04/06 04:38:55;;;;;;;8.23;2.20;;;;;;;;;;4993888;28;98306;-77
2022/04/06 04:41:22;;;;;;;7.90;2.40;;;;;;;;;;4994660;28;98982;-77
2022/04/06 04:43:50;;;;;;;8.40;2.55;;;;;;;;;;4994448;28;99300;-76
2022/04/06 04:46:17;;;;;;;9.00;2.65;;;;;;;;;;4994933;28;98213;-77
2022/04/06 04:48:45;;;;;;;7.72;2.40;;;;;;;;;;4994756;28;100362;-77
2022/04/06 04:51:12;;;;;;;11.75;3.03;;;;;;;;;;4997880;28;99871;-78
2022/04/06 04:53:38;;;;;;;9.20;2.33;;;;;;;;;;4996970;28;99415;-77
2022/04/06 04:56:05;;;;;;;12.20;2.63;;;;;;;;;;4996443;28;100804;-77
2022/04/06 04:58:31;;;;;;;10.52;3.00;;;;;;;;;;4995911;28;98507;-78
2022/04/06 05:00:58;;;;;;;10.05;2.80;;;;;;;;;;4996964;28;99402;-77
2022/04/06 05:03:24;;;;;;;10.43;3.15;;;;;;;;;;4996677;28;99733;-77
2022/04/06 05:05:53;;;;;;;9.18;2.95;;;;;;;;;;4995586;28;98351;-80
2022/04/06 05:08:24;;;;;;;9.90;3.03;;;;;;;;;;4995041;28;99248;-76
2022/04/06 05:10:50;;;;;;;10.32;3.53;;;;;;;;;;4994883;28;99980;-78
2022/04/06 05:13:20;;;;;;;8.73;3.40;;;;;;;;;;4999304;28;97511;-77
2022/04/06 05:15:48;;;;;;;12.13;2.75;;;;;;;;;;4994120;28;99420;-77
2022/04/06 05:18:14;;;;;;;11.05;3.20;;;;;;;;;;4994421;28;98303;-76
2022/04/06 05:20:41;;;;;;;12.50;3.38;;;;;;;;;;4992479;28;100760;-76
2022/04/06 05:23:07;;;;;;;15.63;4.35;;;;;;;;;;4993620;28;99987;-79
2022/04/06 05:25:33;;;;;;;13.00;3.53;;;;;;;;;;4993949;28;98391;-78
2022/04/06 05:28:00;;;;;;;8.70;2.78;;;;;;;;;;4993967;28;99540;-78
2022/04/06 05:30:29;;;;;;;14.48;3.00;;;;;;;;;;4993252;28;100704;-79
2022/04/06 05:32:56;;;;;;;12.77;2.90;;;;;;;;;;4993901;28;98241;-79
2022/04/06 05:35:25;;;;;;;9.38;3.28;;;;;;;;;;4996925;28;98841;-79
2022/04/06 05:37:51;;;;;;;15.85;3.25;;;;;;;;;;4994294;28;97449;-78
2022/04/06 05:40:18;;;;;;;11.73;4.22;;;;;;;;;;4993825;28;100480;-78
2022/04/06 05:42:45;;;;;;;13.23;3.65;;;;;;;;;;4993428;28;99752;-78
2022/04/06 05:45:11;;;;;;;12.20;3.10;;;;;;;;;;4992264;28;98980;-79
2022/04/06 05:47:38;;;;;;;13.45;4.25;;;;;;;;;;4992100;28;103466;-78
2022/04/06 05:50:05;;;;;;;14.35;4.25;;;;;;;;;;4993258;28;99741;-78
2022/04/06 05:52:31;;;;;;;20.38;4.68;;;;;;;;;;4992373;28;98455;-78
2022/04/06 05:54:58;;;;;;;14.88;4.05;;;;;;;;;;4992788;28;102061;-78
2022/04/06 05:57:24;;;;;;;10.93;5.35;;;;;;;;;;4996738;28;99756;-78
2022/04/06 05:59:50;;;;;;;11.80;4.60;;;;;;;;;;4992681;28;101292;-78
2022/04/06 06:02:19;;;;;;;15.15;6.25;;;;;;;;;;4993804;28;99273;-80
2022/04/06 06:04:45;;;;;;;19.95;6.45;;;;;;;;;;4993558;28;98196;-77
2022/04/06 06:07:11;;;;;;;13.27;5.40;;;;;;;;;;4992344;28;101454;-78
2022/04/06 06:09:37;;;;;;;15.00;5.75;;;;;;;;;;4992212;28;101552;-77
2022/04/06 06:12:04;;;;;;;15.32;6.55;;;;;;;;;;4993632;28;98355;-80
2022/04/06 06:14:30;;;;;;;20.65;6.25;;;;;;;;;;4993588;28;99707;-78
2022/04/06 06:16:58;;;;;;;15.27;5.25;;;;;;;;;;4996199;28;99490;-80
2022/04/06 06:19:25;;;;;;;13.88;5.88;;;;;;;;;;4993213;28;99306;-78
2022/04/06 06:21:52;;;;;;;17.33;5.45;;;;;;;;;;4992929;28;100162;-78
2022/04/06 06:24:20;;;;;;;15.50;6.22;;;;;;;;;;4992598;28;98312;-79
2022/04/06 06:26:48;;;;;;;20.80;5.20;;;;;;;;;;4993910;28;99669;-81
2022/04/06 06:29:14;;;;;;;17.88;5.15;;;;;;;;;;4993172;28;99721;-79
2022/04/06 06:31:41;;;;;;;17.50;4.65;;;;;;;;;;4992834;28;98402;-80
2022/04/06 06:34:08;;;;;;;12.05;4.65;;;;;;;;;;4992367;28;100513;-79
2022/04/06 06:36:34;;;;;;;14.38;4.68;;;;;;;;;;4973880;28;99147;-80
2022/04/06 06:39:01;;;;;;;25.90;4.68;;;;;;;;;;4996486;28;98455;-79
2022/04/06 06:41:29;;;;;;;15.65;4.97;;;;;;;;;;4993013;28;99147;-78
2022/04/06 06:43:56;;;;;;;17.67;5.07;;;;;;;;;;4993124;28;98417;-78
2022/04/06 06:46:22;;;;;;;14.95;4.20;;;;;;;;;;4993051;28;99701;-79
2022/04/06 06:48:49;;;;;;;15.65;3.63;;;;;;;;;;4992076;28;100148;-78
2022/04/06 06:51:16;;;;;;;14.10;3.78;;;;;;;;;;4993425;28;97613;-80
2022/04/06 06:53:42;;;;;;;12.30;3.13;;;;;;;;;;4993056;28;98791;-76
2022/04/06 06:56:09;;;;;;;14.13;3.40;;;;;;;;;;4992601;28;99453;-81
2022/04/06 06:58:36;;;;;;;10.60;3.42;;;;;;;;;;4992422;28;98998;-78
2022/04/06 07:01:02;;;;;;;9.30;2.47;;;;;;;;;;4994463;28;102361;-78
2022/04/06 07:03:29;;;;;;;11.35;3.13;;;;;;;;;;4995705;28;98403;-77
2022/04/06 07:05:55;;;;;;;7.68;2.38;;;;;;;;;;4996411;28;98601;-81
2022/04/06 07:08:22;;;;;;;11.15;2.65;;;;;;;;;;4995964;28;99448;-79
2022/04/06 07:10:48;;;;;;;10.55;2.78;;;;;;;;;;4995135;28;98466;-79
2022/04/06 07:13:17;;;;;;;11.02;2.75;;;;;;;;;;4994917;28;101016;-82
2022/04/06 07:15:44;;;;;;;6.15;2.05;;;;;;;;;;4994997;28;100025;-78
2022/04/06 07:18:12;;;;;;;11.10;2.78;;;;;;;;;;4978432;28;98460;-77
2022/04/06 07:20:39;;;;;;;11.60;2.20;;;;;;;;;;4996116;28;99806;-79
2022/04/06 07:23:06;;;;;;;10.15;1.95;;;;;;;;;;4996957;28;103425;-79
2022/04/06 07:25:33;;;;;;;7.35;2.22;;;;;;;;;;4993488;28;100131;-78
2022/04/06 07:28:00;;;;;;;7.00;2.20;;;;;;;;;;4995258;28;100597;-78
2022/04/06 07:30:27;;;;;;;11.32;1.98;;;;;;;;;;4998006;28;98259;-80
2022/04/06 07:32:53;;;;;;;6.65;1.95;;;;;;;;;;4995620;28;100872;-79
2022/04/06 07:35:20;;;;;;;7.82;1.73;;;;;;;;;;4994706;28;99670;-80
2022/04/06 07:37:47;;;;;;;7.93;1.90;;;;;;;;;;4995613;28;98526;-79
2022/04/06 07:40:14;;;;;;;6.97;2.28;;;;;;;;;;4996290;28;99414;-79
2022/04/06 07:42:41;;;;;;;8.38;2.03;;;;;;;;;;4994104;28;102527;-77
2022/04/06 07:45:09;;;;;;;9.45;2.40;;;;;;;;;;4998015;28;98300;-76
2022/04/06 07:47:37;;;;;;;7.30;2.47;;;;;;;;;;4994351;28;100334;-75
2022/04/06 07:50:05;;;;;;;5.63;2.33;;;;;;;;;;4995446;28;98285;-75
2022/04/06 07:52:31;;;;;;;5.50;2.30;;;;;;;;;;4995425;28;99311;-77
2022/04/06 07:54:57;;;;;;;6.95;2.65;;;;;;;;;;4995104;28;100139;-76
2022/04/06 07:57:27;;;;;;;13.57;2.30;;;;;;;;;;4995434;28;99888;-76
2022/04/06 07:59:54;;;;;;;10.18;2.20;;;;;;;;;;4994998;28;100554;-76
2022/04/06 08:02:20;;;;;;;8.43;2.42;;;;;;;;;;4995092;28;99583;-76
2022/04/06 08:04:47;;;;;;;11.40;3.40;;;;;;;;;;4995642;28;97492;-76
2022/04/06 08:07:14;;;;;;;11.77;2.45;;;;;;;;;;4998217;28;99049;-75
2022/04/06 08:09:40;;;;;;;10.55;2.47;;;;;;;;;;4995322;28;98619;-76
2022/04/06 08:12:07;;;;;;;10.35;2.83;;;;;;;;;;4943036;28;99991;-75
2022/04/06 08:14:33;;;;;;;11.68;2.80;;;;;;;;;;4994382;28;100031;-75
2022/04/06 08:16:59;;;;;;;8.68;3.03;;;;;;;;;;4995083;28;98298;-75
2022/04/06 08:19:27;;;;;;;9.93;3.00;;;;;;;;;;4995191;28;99959;-74
2022/04/06 08:21:53;;;;;;;13.55;3.78;;;;;;;;;;4994547;28;100200;-76
2022/04/06 08:24:19;;;;;;;8.27;3.30;;;;;;;;;;4993588;28;98496;-75
2022/04/06 08:26:46;;;;;;;11.65;3.22;;;;;;;;;;4997645;28;99392;-75
2022/04/06 08:29:12;;;;;;;10.75;3.30;;;;;;;;;;4994526;28;97661;-75
2022/04/06 08:31:39;;;;;;;10.75;4.05;;;;;;;;;;4994904;28;98414;-75
2022/04/06 08:34:06;;;;;;;10.57;3.53;;;;;;;;;;4994468;28;99738;-76
2022/04/06 08:36:33;;;;;;;11.63;3.20;;;;;;;;;;4994378;28;99010;-76
2022/04/06 08:39:01;;;;;;;13.55;3.67;;;;;;;;;;4994633;28;100180;-75
2022/04/06 08:41:29;;;;;;;11.65;3.83;;;;;;;;;;4994161;28;100004;-75
2022/04/06 08:43:57;;;;;;;10.07;3.47;;;;;;;;;;4994369;28;98397;-77
2022/04/06 08:46:24;;;;;;;10.70;3.55;;;;;;;;;;4994675;28;99836;-76
2022/04/06 08:48:52;;;;;;;9.88;3.28;;;;;;;;;;4997208;28;99445;-77
2022/04/06 08:51:19;;;;;;;10.43;4.10;;;;;;;;;;4993630;28;100788;-75
2022/04/06 08:53:45;;;;;;;10.50;3.97;;;;;;;;;;4994082;28;100260;-76
2022/04/06 08:56:13;;;;;;;13.30;4.20;;;;;;;;;;4994614;28;98368;-77
2022/04/06 08:58:40;;;;;;;12.65;3.97;;;;;;;;;;4994481;28;98741;-76
2022/04/06 09:01:06;;;;;;;10.07;4.25;;;;;;;;;;4993527;28;100278;-75
2022/04/06 09:03:34;;;;;;;8.52;4.03;;;;;;;;;;4994401;28;98419;-75
2022/04/06 09:06:10;;;;;;;14.15;4.13;;;;;;;;;;4994358;28;98967;-76
2022/04/06 09:08:44;;;;;;;10.65;4.80;;;;;;;;;;4993114;28;98412;-75
2022/04/06 09:11:14;;;;;;;12.15;4.65;;;;;;;;;;4997646;28;98333;-75
2022/04/06 09:13:42;;;;;;;10.57;4.47;;;;;;;;;;4993999;28;99755;-75
2022/04/06 09:16:09;;;;;;;16.73;5.65;;;;;;;;;;4994241;28;98284;-74
2022/04/06 09:18:38;;;;;;;15.65;6.40;;;;;;;;;;4994299;28;100653;-75
2022/04/06 09:21:04;;;;;;;15.00;6.05;;;;;;;;;;4992980;28;100171;-76
2022/04/06 09:23:32;;;;;;;11.05;5.30;;;;;;;;;;4993803;28;98314;-76
2022/04/06 09:26:08;;;;;;;16.35;5.65;;;;;;;;;;4993143;28;99495;-75
2022/04/06 09:28:40;;;;;;;19.58;6.47;;;;;;;;;;4993594;28;99584;-77
2022/04/06 09:31:08;;;;;;;17.38;6.97;;;;;;;;;;4993657;28;98441;-76
2022/04/06 09:33:39;;;;;;;19.58;6.60;;;;;;;;;;4996849;28;98674;-76
2022/04/06 09:36:19;;;;;;;16.38;6.13;;;;;;;;;;4993006;28;98579;-76
2022/04/06 09:38:49;;;;;;;13.25;5.07;;;;;;;;;;4993887;28;99785;-75
2022/04/06 09:41:15;;;;;;;15.15;5.97;;;;;;;;;;4993391;28;99858;-76
2022/04/06 09:43:44;;;;;;;16.85;5.97;;;;;;;;;;4994149;28;97561;-76
2022/04/06 09:49:09;;;;;;;13.27;6.15;;;;;;;;;;4993530;28;99401;-76
2022/04/06 09:51:38;;;;;;;12.73;6.10;;;;;;;;;;4993362;28;99099;-77
2022/04/06 09:54:06;;;;;;;21.58;6.65;;;;;;;;;;4994501;28;100011;-75
2022/04/06 09:56:33;;;;;;;16.30;5.93;;;;;;;;;;4997882;28;99885;-76
2022/04/06 09:59:06;;;;;;;11.40;6.57;;;;;;;;;;4994867;28;99266;-75
2022/04/06 10:01:33;;;;;;;13.02;5.95;;;;;;;;;;4994119;28;100893;-75
2022/04/06 10:04:07;;;;;;;15.23;6.60;;;;;;;;;;4993942;28;98339;-77
2022/04/06 10:06:34;;;;;;;14.45;6.25;;;;;;;;;;4992773;28;99024;-76
2022/04/06 10:09:01;;;;;;;17.58;8.77;;;;;;;;;;4975806;28;98652;-76
2022/04/06 10:11:28;;;;;;;14.57;6.47;;;;;;;;;;4993566;28;98373;-76
2022/04/06 10:13:56;;;;;;;12.43;6.53;;;;;;;;;;4993332;28;99357;-75
2022/04/06 10:16:27;;;;;;;15.10;6.70;;;;;;;;;;4992685;28;100347;-76
2022/04/06 10:18:54;;;;;;;13.32;6.65;;;;;;;;;;4996316;28;98253;-75
2022/04/06 10:21:43;;;;;;;18.95;8.35;;;;;;;;;;4992997;28;99650;-76
2022/04/06 10:24:14;;;;;;;11.57;6.55;;;;;;;;;;4992816;28;98430;-76
2022/04/06 10:26:43;;;;;;;19.95;7.60;;;;;;;;;;4992964;28;100613;-76
2022/04/06 10:29:10;;;;;;;13.80;6.88;;;;;;;;;;4992794;28;99846;-77
2022/04/06 10:31:36;;;;;;;15.52;7.22;;;;;;;;;;4992967;28;98728;-75
2022/04/06 10:34:22;;;;;;;21.40;7.78;;;;;;;;;;4992063;28;100440;-75
2022/04/06 10:37:04;;;;;;;15.90;6.72;;;;;;;;;;4993574;28;99546;-75
2022/04/06 10:39:30;;;;;;;18.33;7.57;;;;;;;;;;5000100;28;98216;-76
2022/04/06 10:42:14;;;;;;;12.85;6.65;;;;;;;;;;4994870;28;100419;-77
2022/04/06 10:44:41;;;;;;;14.00;6.93;;;;;;;;;;4995105;28;98399;-76
2022/04/06 10:47:09;;;;;;;11.45;6.80;;;;;;;;;;4995838;28;100341;-76
2022/04/06 10:49:36;;;;;;;17.52;7.30;;;;;;;;;;4996059;28;99570;-77
2022/04/06 10:52:19;;;;;;;13.50;6.38;;;;;;;;;;4995225;28;98399;-77
2022/04/06 10:54:45;;;;;;;12.73;6.20;;;;;;;;;;4995554;28;99354;-78
2022/04/06 10:57:12;;;;;;;15.27;7.38;;;;;;;;;;4994770;28;100312;-77
2022/04/06 10:59:38;;;;;;;15.77;6.53;;;;;;;;;;4995554;28;97676;-78
2022/04/06 11:02:21;;;;;;;10.88;6.65;;;;;;;;;;4999184;28;99061;-78
2022/04/06 11:04:48;;;;;;;12.77;7.03;;;;;;;;;;4996336;28;98428;-78
2022/04/06 11:10:25;;;;;;;13.95;6.15;;;;;;;;;;4995869;28;99954;-77
2022/04/06 11:13:11;;;;;;;18.20;6.72;;;;;;;;;;4996126;28;98275;-77
2022/04/06 11:15:40;;;;;;;12.38;7.07;;;;;;;;;;4996075;28;99299;-77
2022/04/06 11:18:25;;;;;;;12.80;6.07;;;;;;;;;;4994615;28;99791;-79
2022/04/06 11:21:01;;;;;;;13.50;6.30;;;;;;;;;;4995245;28;98901;-78
2022/04/06 11:23:28;;;;;;;14.82;6.15;;;;;;;;;;4996233;28;98230;-78
2022/04/06 11:25:58;;;;;;;14.88;6.75;;;;;;;;;;4999338;28;98428;-78
2022/04/06 11:28:27;;;;;;;13.93;6.10;;;;;;;;;;4994572;28;98463;-78
2022/04/06 11:30:53;;;;;;;8.68;6.03;;;;;;;;;;4995617;28;99267;-77
2022/04/06 11:33:19;;;;;;;9.32;5.78;;;;;;;;;;4995857;28;98992;-79
2022/04/06 11:35:47;;;;;;;6.22;4.93;;;;;;;;;;4994693;28;100629;-79
2022/04/06 11:38:13;;;;;;;11.63;6.07;;;;;;;;;;4994232;28;100541;-76
2022/04/06 11:40:40;;;;;;;11.90;5.30;;;;;;;;;;4995429;28;98327;-76
2022/04/06 11:43:06;;;;;;;11.68;6.40;;;;;;;;;;4994867;28;98999;-78
2022/04/06 11:45:36;;;;;;;13.95;6.50;;;;;;;;;;4994951;28;99994;-77
2022/04/06 11:48:07;;;;;;;19.52;6.10;;;;;;;;;;4997014;28;98398;-78
2022/04/06 11:50:34;;;;;;;10.88;5.57;;;;;;;;;;4995754;28;99574;-77
2022/04/06 11:53:08;;;;;;;11.13;5.55;;;;;;;;;;4995520;28;98276;-77
2022/04/06 11:55:38;;;;;;;6.97;5.22;;;;;;;;;;4994312;28;99082;-76
2022/04/06 11:58:05;;;;;;;10.85;5.00;;;;;;;;;;4994594;28;100411;-78
2022/04/06 12:00:34;;;;;;;6.15;4.57;;;;;;;;;;4995222;28;98346;-78
2022/04/06 12:03:02;;;;;;;9.98;5.63;;;;;;;;;;4995544;28;99584;-76
2022/04/06 12:05:28;;;;;;;10.50;5.75;;;;;;;;;;4994941;28;99755;-78
2022/04/06 12:08:07;;;;;;;8.88;5.00;;;;;;;;;;4995034;28;98556;-77
2022/04/06 12:10:33;;;;;;;8.32;5.53;;;;;;;;;;4998750;28;99011;-77
2022/04/06 12:13:00;;;;;;;8.70;4.90;;;;;;;;;;4992924;28;98393;-76
2022/04/06 12:15:26;;;;;;;9.75;6.25;;;;;;;;;;4995810;28;98617;-75
2022/04/06 12:17:53;;;;;;;15.55;6.15;;;;;;;;;;4994581;28;98959;-76
2022/04/06 12:20:24;;;;;;;10.43;6.50;;;;;;;;;;4994923;28;98441;-76
2022/04/06 12:23:00;;;;;;;13.73;6.57;;;;;;;;;;4993845;28;99797;-76
2022/04/06 12:25:31;;;;;;;8.25;6.57;;;;;;;;;;4994503;28;99824;-75
2022/04/06 12:28:25;;;;;;;12.77;7.53;;;;;;;;;;4994929;28;98756;-76
2022/04/06 12:30:54;;;;;;;9.20;6.15;;;;;;;;;;4997400;28;99282;-76
2022/04/06 12:33:39;;;;;;;11.57;7.22;;;;;;;;;;4995197;28;100153;-76
2022/04/06 12:36:10;;;;;;;14.63;6.55;;;;;;;;;;4994976;28;99477;-76
2022/04/06 12:38:37;;;;;;;12.80;6.45;;;;;;;;;;4993265;28;101509;-75
2022/04/06 12:41:04;;;;;;;8.88;5.78;;;;;;;;;;4977625;28;98389;-76
2022/04/06 12:43:46;;;;;;;13.30;5.53;;;;;;;;;;4994834;28;98687;-76
2022/04/06 12:46:13;;;;;;;10.20;5.75;;;;;;;;;;4994349;28;100080;-76
2022/04/06 12:48:39;;;;;;;10.60;7.13;;;;;;;;;;4993930;28;102908;-76
2022/04/06 12:51:25;;;;;;;11.07;7.93;;;;;;;;;;4994706;28;100819;-76
2022/04/06 12:53:51;;;;;;;10.98;8.10;;;;;;;;;;4995917;28;100574;-75
2022/04/06 12:56:23;;;;;;;12.32;8.82;;;;;;;;;;4994284;28;100591;-75
2022/04/06 12:59:09;;;;;;;11.82;9.55;;;;;;;;;;4992829;28;99101;-76
2022/04/06 13:01:49;;;;;;;13.02;9.88;;;;;;;;;;4994556;28;98204;-77
2022/04/06 13:04:15;;;;;;;14.00;10.40;;;;;;;;;;4993849;28;100651;-76
2022/04/06 13:06:41;;;;;;;13.52;11.35;;;;;;;;;;4993896;28;99051;-75
2022/04/06 13:09:12;;;;;;;13.07;11.18;;;;;;;;;;4993025;28;99983;-75
2022/04/06 13:11:48;;;;;;;18.30;11.75;;;;;;;;;;5007984;28;98994;-75
2022/04/06 13:14:15;;;;;;;19.45;11.88;;;;;;;;;;4992428;28;101342;-78
2022/04/06 13:16:41;;;;;;;11.57;10.35;;;;;;;;;;5012162;28;98443;-76
2022/04/06 13:19:07;;;;;;;12.63;11.13;;;;;;;;;;4992850;28;99171;-76
2022/04/06 13:21:34;;;;;;;13.55;10.18;;;;;;;;;;4993464;28;98218;-75
2022/04/06 13:24:01;;;;;;;19.25;11.80;;;;;;;;;;4993105;28;99349;-76
2022/04/06 13:26:28;;;;;;;16.77;11.50;;;;;;;;;;4992710;28;100493;-76
2022/04/06 13:28:54;;;;;;;11.52;10.23;;;;;;;;;;4993237;28;98490;-76
2022/04/06 13:31:20;;;;;;;18.08;11.10;;;;;;;;;;4992348;28;100539;-76
2022/04/06 13:33:47;;;;;;;11.65;10.15;;;;;;;;;;4993089;28;98973;-76
2022/04/06 13:36:13;;;;;;;16.67;10.13;;;;;;;;;;4993332;28;98459;-76
2022/04/06 13:38:39;;;;;;;19.63;11.88;;;;;;;;;;4995592;28;99109;-77
2022/04/06 13:41:06;;;;;;;17.98;9.55;;;;;;;;;;4993331;28;98326;-76
2022/04/06 13:43:32;;;;;;;14.20;9.38;;;;;;;;;;4993794;28;99626;-76
2022/04/06 13:45:58;;;;;;;13.57;9.32;;;;;;;;;;4992177;28;100295;-76
2022/04/06 13:48:25;;;;;;;9.63;8.63;;;;;;;;;;4993684;28;98538;-76
2022/04/06 13:50:52;;;;;;;11.90;9.75;;;;;;;;;;4993739;28;99397;-77
2022/04/06 13:53:18;;;;;;;13.52;8.65;;;;;;;;;;4993475;28;99575;-76
2022/04/06 13:55:45;;;;;;;14.98;8.10;;;;;;;;;;4994117;28;97615;-76
2022/04/06 13:58:11;;;;;;;10.27;9.18;;;;;;;;;;4993615;28;98964;-76
2022/04/06 14:00:38;;;;;;;12.25;10.20;;;;;;;;;;4996110;28;99510;-76
2022/04/06 14:03:04;;;;;;;9.85;8.93;;;;;;;;;;4992295;28;99592;-74
2022/04/06 14:05:32;;;;;;;13.77;9.00;;;;;;;;;;4992835;28;99421;-76
2022/04/06 14:08:04;;;;;;;13.60;10.98;;;;;;;;;;4993412;28;98385;-77
2022/04/06 14:10:31;;;;;;;10.23;9.23;;;;;;;;;;4992926;28;99528;-75
2022/04/06 14:12:57;;;;;;;11.93;9.45;;;;;;;;;;4993035;28;99050;-76
2022/04/06 14:15:23;;;;;;;12.43;8.35;;;;;;;;;;4993388;28;100735;-77
2022/04/06 14:17:50;;;;;;;10.50;9.50;;;;;;;;;;4993317;28;99318;-75
2022/04/06 14:20:16;;;;;;;9.60;7.93;;;;;;;;;;4992047;28;100270;-75
2022/04/06 14:22:44;;;;;;;9.30;8.43;;;;;;;;;;4996700;28;98199;-76
2022/04/06 14:25:17;;;;;;;11.73;9.38;;;;;;;;;;4992799;28;99587;-76
2022/04/06 14:27:45;;;;;;;12.65;9.00;;;;;;;;;;4992613;28;98936;-76
2022/04/06 14:30:12;;;;;;;9.88;9.02;;;;;;;;;;4994062;28;100494;-76
2022/04/06 14:32:39;;;;;;;11.60;10.50;;;;;;;;;;4992355;28;99668;-76
2022/04/06 14:35:05;;;;;;;12.80;10.05;;;;;;;;;;5007816;28;98395;-76
2022/04/06 14:37:32;;;;;;;11.73;10.52;;;;;;;;;;4991986;28;99562;-76
2022/04/06 14:39:58;;;;;;;11.23;9.57;;;;;;;;;;4991880;28;100026;-76
2022/04/06 14:42:24;;;;;;;15.80;10.02;;;;;;;;;;4994493;28;98488;-76